createdAt,value
2023-05-14T00:00:11.663Z,9.42
2023-05-14T00:03:00.372Z,9.39
2023-05-14T00:05:29.570Z,9.35
2023-05-14T00:07:58.195Z,9.30
2023-05-14T00:10:27.898Z,9.25
2023-05-14T00:12:56.575Z,9.19
2023-05-14T00:15:25.380Z,9.17
2023-05-14T00:17:54.114Z,9.14
2023-05-14T00:20:23.066Z,9.10
2023-05-14T00:22:52.997Z,9.02
2023-05-14T00:25:21.763Z,8.96
2023-05-14T00:27:50.339Z,8.90
2023-05-14T00:30:20.644Z,8.85
2023-05-14T00:32:49.314Z,8.79
2023-05-14T00:35:18.248Z,8.75
2023-05-14T00:37:46.844Z,8.70
2023-05-14T00:40:15.916Z,8.67
2023-05-14T00:42:44.609Z,8.64
2023-05-14T00:45:14.737Z,8.61
2023-05-14T00:47:44.559Z,8.60
2023-05-14T00:50:13.926Z,8.59
2023-05-14T00:52:43.144Z,8.56
2023-05-14T00:55:17.118Z,8.54
2023-05-14T00:57:46.993Z,8.50
2023-05-14T01:00:16.054Z,8.47
2023-05-14T01:02:44.656Z,8.45
2023-05-14T01:05:13.751Z,8.44
2023-05-14T01:07:54.811Z,8.43
2023-05-14T01:10:38.639Z,8.41
2023-05-14T01:13:18.772Z,8.38
2023-05-14T01:15:49.037Z,8.37
2023-05-14T01:18:19.869Z,8.37
2023-05-14T01:20:51.888Z,8.35
2023-05-14T01:23:20.610Z,8.32
2023-05-14T01:25:49.118Z,8.31
2023-05-14T01:28:29.993Z,8.28
2023-05-14T01:31:07.424Z,8.28
2023-05-14T01:33:37.751Z,8.28
2023-05-14T01:36:06.967Z,8.28
2023-05-14T01:38:37.208Z,8.27
2023-05-14T01:41:05.869Z,8.26
2023-05-14T01:43:35.541Z,8.25
2023-05-14T01:46:05.334Z,8.23
2023-05-14T01:48:34.195Z,8.21
2023-05-14T01:51:03.200Z,8.19
2023-05-14T01:53:31.882Z,8.15
2023-05-14T01:56:00.749Z,8.13
2023-05-14T01:58:29.326Z,8.08
2023-05-14T02:00:58.154Z,8.02
2023-05-14T02:03:28.072Z,7.94
2023-05-14T02:05:56.929Z,7.87
2023-05-14T02:08:28.765Z,7.80
2023-05-14T02:10:58.911Z,7.74
2023-05-14T02:13:27.925Z,7.70
2023-05-14T02:15:57.563Z,7.65
2023-05-14T02:18:29.002Z,7.62
2023-05-14T02:20:58.390Z,7.59
2023-05-14T02:23:37.667Z,7.56
2023-05-14T02:26:10.811Z,7.52
2023-05-14T02:28:39.607Z,7.48
2023-05-14T02:31:08.922Z,7.44
2023-05-14T02:33:37.905Z,7.41
2023-05-14T02:36:07.272Z,7.37
2023-05-14T02:38:36.071Z,7.32
2023-05-14T02:41:07.247Z,7.27
2023-05-14T02:43:39.260Z,7.22
2023-05-14T02:46:11.244Z,7.17
2023-05-14T02:48:44.174Z,7.14
2023-05-14T02:51:18.212Z,7.10
2023-05-14T02:53:50.702Z,7.07
2023-05-14T02:56:24.310Z,6.99
2023-05-14T02:58:57.900Z,6.90
2023-05-14T03:01:33.551Z,6.83
2023-05-14T03:04:04.588Z,6.76
2023-05-14T03:06:38.427Z,6.69
2023-05-14T03:09:10.328Z,6.63
2023-05-14T03:11:40.483Z,6.57
2023-05-14T03:14:09.077Z,6.52
2023-05-14T03:16:38.011Z,6.49
2023-05-14T03:19:06.822Z,6.47
2023-05-14T03:21:36.687Z,6.48
2023-05-14T03:24:10.906Z,6.49
2023-05-14T03:26:43.181Z,6.50
2023-05-14T03:29:19.715Z,6.51
2023-05-14T03:31:54.738Z,6.53
2023-05-14T03:34:29.572Z,6.53
2023-05-14T03:37:01.558Z,6.54
2023-05-14T03:39:37.381Z,6.55
2023-05-14T03:42:11.062Z,6.60
2023-05-14T03:44:45.538Z,6.69
2023-05-14T03:47:18.734Z,6.78
2023-05-14T03:49:51.423Z,6.88
2023-05-14T03:52:22.760Z,6.97
2023-05-14T03:54:52.456Z,7.07
2023-05-14T03:57:21.731Z,7.17
2023-05-14T03:59:50.639Z,7.26
2023-05-14T04:02:21.017Z,7.37
2023-05-14T04:04:52.207Z,7.47
2023-05-14T04:07:22.411Z,7.59
2023-05-14T04:09:55.289Z,7.70
2023-05-14T04:12:27.111Z,7.82
2023-05-14T04:15:00.251Z,7.95
2023-05-14T04:17:36.016Z,8.09
2023-05-14T04:20:09.775Z,8.23
2023-05-14T04:22:42.129Z,8.38
2023-05-14T04:25:15.356Z,8.51
2023-05-14T04:27:51.245Z,8.61
2023-05-14T04:30:24.074Z,8.68
2023-05-14T04:32:57.580Z,8.76
2023-05-14T04:35:35.069Z,8.86
2023-05-14T04:38:04.684Z,8.98
2023-05-14T04:40:33.595Z,9.07
2023-05-14T04:43:02.277Z,9.14
2023-05-14T04:45:34.058Z,9.21
2023-05-14T04:48:04.579Z,9.28
2023-05-14T04:50:33.259Z,9.35
2023-05-14T04:53:02.248Z,9.43
2023-05-14T04:55:30.820Z,9.51
2023-05-14T04:57:59.710Z,9.59
2023-05-14T05:00:29.078Z,9.67
2023-05-14T05:03:00.682Z,9.76
2023-05-14T05:05:32.823Z,9.84
2023-05-14T05:08:07.565Z,9.93
2023-05-14T05:10:39.483Z,10.03
2023-05-14T05:13:16.595Z,10.15
2023-05-14T05:15:47.749Z,10.28
2023-05-14T05:18:20.623Z,10.41
2023-05-14T05:20:53.303Z,10.56
2023-05-14T05:23:26.942Z,10.74
2023-05-14T05:25:58.921Z,10.91
2023-05-14T05:28:31.831Z,11.09
2023-05-14T05:31:04.484Z,11.23
2023-05-14T05:33:33.065Z,11.34
2023-05-14T05:36:02.390Z,11.44
2023-05-14T05:38:34.553Z,11.53
2023-05-14T05:41:09.414Z,11.62
2023-05-14T05:43:44.456Z,11.71
2023-05-14T05:46:18.160Z,11.78
2023-05-14T05:48:54.542Z,11.87
2023-05-14T05:51:27.046Z,11.98
2023-05-14T05:54:03.771Z,12.10
2023-05-14T05:56:37.506Z,12.24
2023-05-14T05:59:10.560Z,12.40
2023-05-14T06:01:43.594Z,12.54
2023-05-14T06:04:20.196Z,12.66
2023-05-14T06:06:51.983Z,12.78
2023-05-14T06:09:22.119Z,12.88
2023-05-14T06:11:50.911Z,12.97
2023-05-14T06:14:19.692Z,13.04
2023-05-14T06:16:48.649Z,13.10
2023-05-14T06:19:17.604Z,13.17
2023-05-14T06:21:46.473Z,13.22
2023-05-14T06:24:15.369Z,13.29
2023-05-14T06:26:44.050Z,13.38
2023-05-14T06:29:13.158Z,13.47
2023-05-14T06:31:41.960Z,13.61
2023-05-14T06:34:11.336Z,13.85
2023-05-14T06:36:41.175Z,14.17
2023-05-14T06:39:10.542Z,14.54
2023-05-14T06:41:39.446Z,14.93
2023-05-14T06:44:13.117Z,15.28
2023-05-14T06:46:46.136Z,15.64
2023-05-14T06:49:16.294Z,15.96
2023-05-14T06:51:45.360Z,16.24
2023-05-14T06:54:13.928Z,16.45
2023-05-14T06:56:42.711Z,16.63
2023-05-14T06:59:11.825Z,16.80
2023-05-14T07:01:41.401Z,16.97
2023-05-14T07:04:10.219Z,17.11
2023-05-14T07:06:39.456Z,17.20
2023-05-14T07:09:08.594Z,17.25
2023-05-14T07:11:37.299Z,17.32
2023-05-14T07:14:06.584Z,17.40
2023-05-14T07:16:35.676Z,17.47
2023-05-14T07:19:06.777Z,17.48
2023-05-14T07:21:36.943Z,17.47
2023-05-14T07:24:06.544Z,17.54
2023-05-14T07:26:35.647Z,17.58
2023-05-14T07:29:04.749Z,17.63
2023-05-14T07:31:34.278Z,17.57
2023-05-14T07:34:04.781Z,17.49
2023-05-14T07:36:33.664Z,17.46
2023-05-14T07:39:02.957Z,17.45
2023-05-14T07:41:31.634Z,17.49
2023-05-14T07:44:01.655Z,17.57
2023-05-14T07:46:30.543Z,17.67
2023-05-14T07:48:59.346Z,17.75
2023-05-14T07:51:30.381Z,17.84
2023-05-14T07:54:01.402Z,17.90
2023-05-14T07:56:31.117Z,17.94
2023-05-14T07:59:00.008Z,17.93
2023-05-14T08:01:28.795Z,17.92
2023-05-14T08:03:57.683Z,17.95
2023-05-14T08:06:30.172Z,18.01
2023-05-14T08:08:58.754Z,18.08
2023-05-14T08:11:27.537Z,18.12
2023-05-14T08:13:56.240Z,18.19
2023-05-14T08:16:26.565Z,18.22
2023-05-14T08:18:55.309Z,18.28
2023-05-14T08:21:24.017Z,18.38
2023-05-14T08:23:52.703Z,18.44
2023-05-14T08:26:24.619Z,18.49
2023-05-14T08:28:55.429Z,18.55
2023-05-14T08:31:25.279Z,18.59
2023-05-14T08:33:54.028Z,18.64
2023-05-14T08:36:23.942Z,18.70
2023-05-14T08:38:52.522Z,18.76
2023-05-14T08:41:22.641Z,18.83
2023-05-14T08:44:07.734Z,18.84
2023-05-14T08:46:38.728Z,18.86
2023-05-14T08:49:30.051Z,18.87
2023-05-14T08:51:59.158Z,18.91
2023-05-14T08:54:30.497Z,18.97
2023-05-14T08:56:59.899Z,19.01
2023-05-14T08:59:32.718Z,19.02
2023-05-14T09:02:08.083Z,19.03
2023-05-14T09:04:42.839Z,19.10
2023-05-14T09:07:14.590Z,19.11
2023-05-14T09:09:45.558Z,19.13
2023-05-14T09:12:14.528Z,19.19
2023-05-14T09:14:44.746Z,19.23
2023-05-14T09:17:13.883Z,19.20
2023-05-14T09:19:43.978Z,19.15
2023-05-14T09:22:14.077Z,19.09
2023-05-14T09:24:43.191Z,19.07
2023-05-14T09:27:21.961Z,19.07
2023-05-14T09:29:50.678Z,19.11
2023-05-14T09:32:21.004Z,19.11
2023-05-14T09:34:50.640Z,19.17
2023-05-14T09:37:19.409Z,19.24
2023-05-14T09:39:48.088Z,19.31
2023-05-14T09:42:17.091Z,19.37
2023-05-14T09:44:47.019Z,19.41
2023-05-14T09:47:16.440Z,19.45
2023-05-14T09:49:50.998Z,19.54
2023-05-14T09:52:20.320Z,19.61
2023-05-14T09:54:49.326Z,19.69
2023-05-14T09:57:17.921Z,19.74
2023-05-14T09:59:47.003Z,19.77
2023-05-14T10:02:27.623Z,19.79
2023-05-14T10:04:59.210Z,19.75
2023-05-14T10:07:34.505Z,19.73
2023-05-14T10:10:13.934Z,19.74
2023-05-14T10:12:55.363Z,19.76
2023-05-14T10:15:38.609Z,19.80
2023-05-14T10:18:19.709Z,19.85
2023-05-14T10:20:52.776Z,19.90
2023-05-14T10:23:21.458Z,19.94
2023-05-14T10:25:50.457Z,20.01
2023-05-14T10:28:19.648Z,20.06
2023-05-14T10:30:49.076Z,20.08
2023-05-14T10:33:19.008Z,20.11
2023-05-14T10:36:08.040Z,20.14
2023-05-14T10:38:38.056Z,20.19
2023-05-14T10:41:12.538Z,20.26
2023-05-14T10:43:46.199Z,20.29
2023-05-14T10:46:15.500Z,20.32
2023-05-14T10:48:44.764Z,20.34
2023-05-14T10:51:14.765Z,20.33
2023-05-14T10:53:43.597Z,20.35
2023-05-14T10:56:15.237Z,20.36
2023-05-14T10:58:45.548Z,20.39
2023-05-14T11:01:14.749Z,20.40
2023-05-14T11:03:45.960Z,20.38
2023-05-14T11:06:16.373Z,20.37
2023-05-14T11:08:47.613Z,20.41
2023-05-14T11:11:19.506Z,20.44
2023-05-14T11:13:48.527Z,20.49
2023-05-14T11:16:23.159Z,20.55
2023-05-14T11:19:05.852Z,20.58
2023-05-14T11:21:34.570Z,20.61
2023-05-14T11:24:05.813Z,20.61
2023-05-14T11:26:34.735Z,20.57
2023-05-14T11:29:05.339Z,20.56
2023-05-14T11:31:34.009Z,20.57
2023-05-14T11:34:04.525Z,20.63
2023-05-14T11:36:33.115Z,20.71
2023-05-14T11:39:01.903Z,20.80
2023-05-14T11:41:31.834Z,20.83
2023-05-14T11:44:00.509Z,20.88
2023-05-14T11:46:32.684Z,20.94
2023-05-14T11:49:11.245Z,21.01
2023-05-14T11:51:41.724Z,21.04
2023-05-14T11:54:10.910Z,21.00
2023-05-14T11:56:39.902Z,20.93
2023-05-14T11:59:11.257Z,20.85
2023-05-14T12:01:40.242Z,20.81
2023-05-14T12:04:08.997Z,20.81
2023-05-14T12:06:39.755Z,20.84
2023-05-14T12:09:08.454Z,20.95
2023-05-14T12:11:37.737Z,21.09
2023-05-14T12:14:23.120Z,21.21
2023-05-14T12:16:52.231Z,21.32
2023-05-14T12:19:23.833Z,21.37
2023-05-14T12:21:54.303Z,21.46
2023-05-14T12:24:26.152Z,21.55
2023-05-14T12:26:55.967Z,21.60
2023-05-14T12:29:27.025Z,21.59
2023-05-14T12:31:59.788Z,21.55
2023-05-14T12:34:28.633Z,21.53
2023-05-14T12:36:57.804Z,21.55
2023-05-14T12:39:27.406Z,21.59
2023-05-14T12:41:56.537Z,21.59
2023-05-14T12:44:25.782Z,21.60
2023-05-14T12:46:54.977Z,21.60
2023-05-14T12:49:23.779Z,21.60
2023-05-14T12:52:03.238Z,21.59
2023-05-14T12:54:43.795Z,21.59
2023-05-14T12:57:12.576Z,21.58
2023-05-14T12:59:41.863Z,21.56
2023-05-14T13:02:11.052Z,21.52
2023-05-14T13:04:39.559Z,21.50
2023-05-14T13:07:09.247Z,21.54
2023-05-14T13:09:38.229Z,21.59
2023-05-14T13:12:07.564Z,21.62
2023-05-14T13:14:37.658Z,21.64
2023-05-14T13:17:07.560Z,21.67
2023-05-14T13:19:36.361Z,21.70
2023-05-14T13:22:05.289Z,21.74
2023-05-14T13:24:34.793Z,21.78
2023-05-14T13:27:04.046Z,21.83
2023-05-14T13:29:32.484Z,21.86
2023-05-14T13:32:01.230Z,21.87
2023-05-14T13:34:30.000Z,21.82
2023-05-14T13:36:58.580Z,21.79
2023-05-14T13:39:27.600Z,21.80
2023-05-14T13:41:57.318Z,21.82
2023-05-14T13:44:26.391Z,21.87
2023-05-14T13:47:03.277Z,21.92
2023-05-14T13:49:41.517Z,21.97
2023-05-14T13:52:13.237Z,21.96
2023-05-14T13:54:41.807Z,21.91
2023-05-14T13:57:11.339Z,21.88
2023-05-14T13:59:39.800Z,21.88
2023-05-14T14:02:09.302Z,21.91
2023-05-14T14:04:38.301Z,21.92
2023-05-14T14:07:07.003Z,21.91
2023-05-14T14:09:37.523Z,21.85
2023-05-14T14:12:06.949Z,21.78
2023-05-14T14:14:35.821Z,21.78
2023-05-14T14:17:05.130Z,21.77
2023-05-14T14:19:34.109Z,21.75
2023-05-14T14:22:02.786Z,21.68
2023-05-14T14:24:31.691Z,21.61
2023-05-14T14:27:02.539Z,21.57
2023-05-14T14:29:31.621Z,21.53
2023-05-14T14:32:00.468Z,21.48
2023-05-14T14:34:29.304Z,21.42
2023-05-14T14:36:58.273Z,21.35
2023-05-14T14:39:27.980Z,21.33
2023-05-14T14:41:56.688Z,21.32
2023-05-14T14:44:25.782Z,21.32
2023-05-14T14:46:54.671Z,21.30
2023-05-14T14:49:24.169Z,21.31
2023-05-14T14:51:53.468Z,21.34
2023-05-14T14:54:24.774Z,21.35
2023-05-14T14:56:56.398Z,21.31
2023-05-14T14:59:25.267Z,21.28
2023-05-14T15:01:54.290Z,21.28
2023-05-14T15:04:23.087Z,21.31
2023-05-14T15:06:51.941Z,21.33
2023-05-14T15:09:20.716Z,21.30
2023-05-14T15:11:49.810Z,21.30
2023-05-14T15:14:18.399Z,21.32
2023-05-14T15:16:49.505Z,21.35
2023-05-14T15:19:19.600Z,21.35
2023-05-14T15:21:48.560Z,21.38
2023-05-14T15:24:17.045Z,21.43
2023-05-14T15:26:50.573Z,21.48
2023-05-14T15:29:23.306Z,21.47
2023-05-14T15:31:52.257Z,21.46
2023-05-14T15:34:21.184Z,21.46
2023-05-14T15:36:49.779Z,21.46
2023-05-14T15:39:18.785Z,21.45
2023-05-14T15:41:47.878Z,21.46
2023-05-14T15:44:16.987Z,21.46
2023-05-14T15:46:45.897Z,21.45
2023-05-14T15:49:14.652Z,21.44
2023-05-14T15:51:43.868Z,21.42
2023-05-14T15:54:12.522Z,21.40
2023-05-14T15:56:41.620Z,21.35
2023-05-14T15:59:14.908Z,21.30
2023-05-14T16:01:46.314Z,21.29
2023-05-14T16:04:21.697Z,21.27
2023-05-14T16:06:55.370Z,21.25
2023-05-14T16:09:28.254Z,21.22
2023-05-14T16:11:58.729Z,21.20
2023-05-14T16:14:27.612Z,21.14
2023-05-14T16:16:56.700Z,21.04
2023-05-14T16:19:25.895Z,20.94
2023-05-14T16:21:54.787Z,20.86
2023-05-14T16:24:24.018Z,20.79
2023-05-14T16:26:52.865Z,20.70
2023-05-14T16:29:22.087Z,20.59
2023-05-14T16:31:51.021Z,20.51
2023-05-14T16:34:19.968Z,20.43
2023-05-14T16:36:48.572Z,20.37
2023-05-14T16:39:18.062Z,20.29
2023-05-14T16:41:56.882Z,20.24
2023-05-14T16:44:25.750Z,20.18
2023-05-14T16:46:54.694Z,20.11
2023-05-14T16:49:23.648Z,20.05
2023-05-14T16:51:52.213Z,19.99
2023-05-14T16:54:21.105Z,19.94
2023-05-14T16:56:49.814Z,19.87
2023-05-14T16:59:18.802Z,19.80
2023-05-14T17:01:48.627Z,19.72
2023-05-14T17:04:18.456Z,19.67
2023-05-14T17:06:47.870Z,19.63
2023-05-14T17:09:18.231Z,19.59
2023-05-14T17:11:47.339Z,19.57
2023-05-14T17:14:16.535Z,19.55
2023-05-14T17:16:45.638Z,19.52
2023-05-14T17:19:15.518Z,19.47
2023-05-14T17:21:44.220Z,19.42
2023-05-14T17:24:13.637Z,19.34
2023-05-14T17:26:42.521Z,19.27
2023-05-14T17:29:11.853Z,19.20
2023-05-14T17:31:41.239Z,19.13
2023-05-14T17:34:10.411Z,19.05
2023-05-14T17:36:40.223Z,18.97
2023-05-14T17:39:10.268Z,18.91
2023-05-14T17:41:39.244Z,18.87
2023-05-14T17:44:13.994Z,18.85
2023-05-14T17:46:45.783Z,18.83
2023-05-14T17:49:18.601Z,18.81
2023-05-14T17:52:01.337Z,18.78
2023-05-14T17:54:30.840Z,18.74
2023-05-14T17:56:59.935Z,18.73
2023-05-14T17:59:28.920Z,18.71
2023-05-14T18:02:00.956Z,18.68
2023-05-14T18:04:30.087Z,18.65
2023-05-14T18:06:58.912Z,18.61
2023-05-14T18:09:28.392Z,18.56
2023-05-14T18:11:58.306Z,18.50
2023-05-14T18:14:29.034Z,18.44
2023-05-14T18:16:59.088Z,18.40
2023-05-14T18:19:27.823Z,18.34
2023-05-14T18:21:58.144Z,18.28
2023-05-14T18:24:27.881Z,18.16
2023-05-14T18:26:57.803Z,18.04
2023-05-14T18:29:27.717Z,17.98
2023-05-14T18:31:56.887Z,17.93
2023-05-14T18:34:27.720Z,17.86
2023-05-14T18:36:58.780Z,17.78
2023-05-14T18:39:31.429Z,17.71
2023-05-14T18:42:09.041Z,17.62
2023-05-14T18:44:46.038Z,17.51
2023-05-14T18:47:15.332Z,17.39
2023-05-14T18:49:45.228Z,17.27
2023-05-14T18:56:10.302Z,17.01
2023-05-14T19:00:10.030Z,16.93
2023-05-14T19:02:40.760Z,16.80
2023-05-14T19:05:10.024Z,16.71
2023-05-14T19:07:39.594Z,16.64
2023-05-14T19:10:11.965Z,16.56
2023-05-14T19:12:47.707Z,16.47
2023-05-14T19:15:18.488Z,16.39
2023-05-14T19:17:51.768Z,16.33
2023-05-14T19:20:21.578Z,16.27
2023-05-14T19:22:51.612Z,16.24
2023-05-14T19:25:21.327Z,16.21
2023-05-14T19:27:51.881Z,16.16
2023-05-14T19:30:26.767Z,16.11
2023-05-14T19:33:08.833Z,16.05
2023-05-14T19:35:54.656Z,16.04
2023-05-14T19:38:25.285Z,16.02
2023-05-14T19:40:57.552Z,16.00
2023-05-14T19:43:30.068Z,15.95
2023-05-14T19:46:01.589Z,15.90
2023-05-14T19:48:41.059Z,15.86
2023-05-14T19:51:20.866Z,15.79
2023-05-14T19:53:51.224Z,15.70
2023-05-14T19:56:20.914Z,15.63
2023-05-14T19:58:51.953Z,15.55
2023-05-14T20:01:22.719Z,15.47
2023-05-14T20:03:54.901Z,15.38
2023-05-14T20:06:30.322Z,15.32
2023-05-14T20:09:16.095Z,15.26
2023-05-14T20:12:08.117Z,15.19
2023-05-14T20:14:41.871Z,15.16
2023-05-14T20:17:11.364Z,15.14
2023-05-14T20:19:40.342Z,15.13
2023-05-14T20:22:09.982Z,15.11
2023-05-14T20:24:41.630Z,15.09
2023-05-14T20:27:11.744Z,15.07
2023-05-14T20:29:41.087Z,15.05
2023-05-14T20:32:10.384Z,15.01
2023-05-14T20:34:39.494Z,14.98
2023-05-14T20:37:09.093Z,14.95
2023-05-14T20:39:38.009Z,14.92
2023-05-14T20:42:07.532Z,14.91
2023-05-14T20:44:40.694Z,14.88
2023-05-14T20:47:24.810Z,14.86
2023-05-14T20:50:24.746Z,14.82
2023-05-14T20:52:57.342Z,14.79
2023-05-14T20:55:33.650Z,14.76
2023-05-14T20:58:05.357Z,14.74
2023-05-14T21:00:36.996Z,14.73
2023-05-14T21:03:07.034Z,14.73
2023-05-14T21:05:40.723Z,14.72
2023-05-14T21:08:12.578Z,14.69
2023-05-14T21:10:46.534Z,14.64
2023-05-14T21:13:18.170Z,14.61
2023-05-14T21:15:50.221Z,14.56
2023-05-14T21:18:28.884Z,14.46
2023-05-14T21:21:04.526Z,14.34
2023-05-14T21:23:37.554Z,14.22
2023-05-14T21:26:11.887Z,14.13
2023-05-14T21:28:40.979Z,14.07
2023-05-14T21:31:12.760Z,14.01
2023-05-14T21:33:45.898Z,14.01
2023-05-14T21:36:17.733Z,14.00
2023-05-14T21:38:47.228Z,14.00
2023-05-14T21:41:15.781Z,13.98
2023-05-14T21:43:45.674Z,13.96
2023-05-14T21:46:14.486Z,13.95
2023-05-14T21:48:43.496Z,13.93
2023-05-14T21:51:12.372Z,13.92
2023-05-14T21:53:42.173Z,13.90
2023-05-14T21:56:10.753Z,13.90
2023-05-14T21:58:39.348Z,13.91
2023-05-14T22:01:09.706Z,13.91
2023-05-14T22:03:38.700Z,13.93
2023-05-14T22:06:07.751Z,13.94
2023-05-14T22:08:36.233Z,13.96
2023-05-14T22:11:05.112Z,13.98
2023-05-14T22:13:35.659Z,14.00
2023-05-14T22:16:12.029Z,14.02
2023-05-14T22:18:43.212Z,14.03
2023-05-14T22:21:11.736Z,14.05
2023-05-14T22:23:40.432Z,14.05
2023-05-14T22:26:08.998Z,14.06
2023-05-14T22:28:40.347Z,14.05
2023-05-14T22:31:09.408Z,14.04
2023-05-14T22:33:38.460Z,14.04
2023-05-14T22:36:10.890Z,14.03
2023-05-14T22:38:45.468Z,14.01
2023-05-14T22:41:23.945Z,13.97
2023-05-14T22:43:58.464Z,13.93
2023-05-14T22:46:32.608Z,13.87
2023-05-14T22:49:05.859Z,13.83
2023-05-14T22:51:38.176Z,13.79
2023-05-14T22:54:13.006Z,13.77
2023-05-14T22:56:44.424Z,13.77
2023-05-14T22:59:17.006Z,13.76
2023-05-14T23:01:49.784Z,13.76
2023-05-14T23:04:19.185Z,13.76
2023-05-14T23:06:47.891Z,13.74
2023-05-14T23:09:17.292Z,13.71
2023-05-14T23:11:46.502Z,13.68
2023-05-14T23:14:24.793Z,13.65
2023-05-14T23:16:57.398Z,13.65
2023-05-14T23:19:28.813Z,13.65
2023-05-14T23:22:01.748Z,13.63
2023-05-14T23:24:36.919Z,13.61
2023-05-14T23:27:09.555Z,13.59
2023-05-14T23:29:42.206Z,13.58
2023-05-14T23:32:13.177Z,13.57
2023-05-14T23:34:45.740Z,13.56
2023-05-14T23:37:19.125Z,13.55
2023-05-14T23:39:56.055Z,13.54
2023-05-14T23:42:26.818Z,13.52
2023-05-14T23:44:56.014Z,13.49
2023-05-14T23:47:24.708Z,13.45
2023-05-14T23:49:56.213Z,13.42
2023-05-14T23:52:27.848Z,13.38
2023-05-14T23:55:01.782Z,13.36
2023-05-14T23:57:36.042Z,13.34
